Time;durP1;ratioP1;P1;durP2;ratioP2;P2;SDS_P1;SDS_P2;PMS_P1;PMS_P2;Temp;Humidity;BMP_temperature;BMP_pressure;BME280_temperature;BME280_humidity;BME280_pressure;Samples;Min_cycle;Max_cycle;Signal;HPM_P1;HPM_P2
2022/12/10 15:03:26;;;;;;;76.10;28.00;;;0.30;89.30;;;;;;4929499;27;5649362;-59
2022/12/10 15:06:01;;;;;;;87.18;31.27;;;0.30;89.10;;;;;;5111482;28;20035;-60
2022/12/10 15:08:35;;;;;;;93.25;37.15;;;0.40;89.30;;;;;;5111166;28;20023;-58
2022/12/10 15:11:21;;;;;;;92.20;35.65;;;0.50;89.30;;;;;;5111351;28;20467;-59
2022/12/10 15:14:00;;;;;;;86.68;35.83;;;0.50;88.60;;;;;;5109537;28;20382;-56
2022/12/10 15:16:31;;;;;;;89.45;38.70;;;0.70;88.90;;;;;;5109821;28;20023;-57
2022/12/10 15:19:08;;;;;;;100.35;38.25;;;0.60;88.10;;;;;;5109548;28;20532;-58
2022/12/10 15:21:42;;;;;;;88.68;32.25;;;0.60;88.10;;;;;;5111140;28;20443;-59
2022/12/10 15:24:25;;;;;;;86.35;36.97;;;0.40;88.10;;;;;;5111036;28;20375;-60
2022/12/10 15:26:51;;;;;;;90.15;34.65;;;0.50;88.20;;;;;;5111150;28;20058;-58
2022/12/10 15:29:26;;;;;;;94.38;37.30;;;0.60;88.10;;;;;;5109363;28;20028;-55
2022/12/10 15:32:01;;;;;;;90.22;36.85;;;0.50;88.00;;;;;;5109222;28;20028;-58
2022/12/10 15:34:34;;;;;;;91.47;36.13;;;0.70;88.30;;;;;;5109059;28;20511;-58
2022/12/10 15:37:02;;;;;;;48.25;20.83;;;0.80;88.00;;;;;;5109563;28;20475;-58
2022/12/10 15:39:29;;;;;;;67.32;27.85;;;0.60;87.80;;;;;;5110742;28;20391;-57
2022/12/10 15:41:56;;;;;;;81.13;34.78;;;0.50;88.00;;;;;;5110851;28;20031;-58
2022/12/10 15:44:37;;;;;;;87.88;35.78;;;0.50;88.20;;;;;;5110474;28;20031;-60
2022/12/10 15:47:12;;;;;;;78.90;31.40;;;0.60;88.20;;;;;;5109469;28;20471;-58
2022/12/10 15:49:45;;;;;;;85.78;34.67;;;0.70;87.80;;;;;;5109468;28;20024;-61
2022/12/10 15:52:16;;;;;;;69.63;26.50;;;0.80;87.60;;;;;;5109132;28;20467;-58
2022/12/10 15:54:45;;;;;;;69.32;30.17;;;0.80;87.40;;;;;;5108830;28;20035;-59
2022/12/10 15:57:17;;;;;;;70.15;31.52;;;0.70;87.70;;;;;;5108511;28;20108;-58
2022/12/10 15:59:44;;;;;;;76.18;29.63;;;0.80;87.60;;;;;;5110595;28;20028;-57
2022/12/10 16:02:26;;;;;;;81.10;33.00;;;0.80;87.40;;;;;;5109785;28;20044;-60
2022/12/10 16:04:52;;;;;;;86.40;34.03;;;0.80;87.50;;;;;;5108838;28;20047;-63
2022/12/10 16:07:19;;;;;;;76.20;32.00;;;0.70;87.70;;;;;;5108231;28;20043;-59
2022/12/10 16:09:47;;;;;;;68.80;30.27;;;0.80;87.80;;;;;;5110018;28;20055;-57
2022/12/10 16:12:16;;;;;;;77.63;34.17;;;0.90;87.50;;;;;;5107792;28;20032;-58
2022/12/10 16:14:59;;;;;;;76.32;32.83;;;0.80;87.10;;;;;;5096205;28;20028;-58
2022/12/10 16:17:29;;;;;;;76.30;33.20;;;0.80;87.10;;;;;;5095281;28;20074;-58
2022/12/10 16:19:59;;;;;;;74.55;32.72;;;0.90;87.30;;;;;;5096639;28;20036;-57
2022/12/10 16:22:31;;;;;;;81.05;33.97;;;0.90;87.00;;;;;;5095573;28;20028;-59
2022/12/10 16:24:57;;;;;;;78.47;31.65;;;0.90;86.90;;;;;;5096784;28;20028;-58
2022/12/10 16:27:26;;;;;;;79.97;31.15;;;0.80;87.10;;;;;;5096977;28;20369;-57
2022/12/10 16:29:52;;;;;;;77.35;32.55;;;0.80;87.10;;;;;;5095291;28;20030;-57
2022/12/10 16:32:17;;;;;;;86.35;32.30;;;0.80;87.20;;;;;;5096225;28;20110;-58
2022/12/10 16:34:43;;;;;;;82.25;34.70;;;0.90;87.20;;;;;;5096734;28;20107;-55
2022/12/10 16:37:12;;;;;;;70.80;31.73;;;0.80;87.10;;;;;;5096488;28;20028;-58
2022/12/10 16:39:39;;;;;;;79.32;33.03;;;0.80;87.50;;;;;;5096552;28;20450;-59
2022/12/10 16:42:05;;;;;;;73.10;32.05;;;0.90;87.50;;;;;;5096002;28;20020;-55
2022/12/10 16:44:33;;;;;;;75.10;30.55;;;0.80;87.70;;;;;;5096495;28;20035;-58
2022/12/10 16:46:59;;;;;;;73.00;29.52;;;0.70;87.50;;;;;;5093999;28;20020;-57
2022/12/10 16:49:25;;;;;;;78.57;32.92;;;0.70;87.70;;;;;;5095414;28;20028;-57
2022/12/10 16:51:51;;;;;;;86.88;35.35;;;0.70;87.80;;;;;;5094178;28;20028;-55
2022/12/10 16:54:17;;;;;;;78.03;32.88;;;0.70;88.10;;;;;;5094239;28;20032;-58
2022/12/10 16:56:43;;;;;;;81.03;33.03;;;0.60;88.30;;;;;;5094055;28;20055;-58
2022/12/10 16:59:10;;;;;;;75.50;30.67;;;0.80;88.30;;;;;;5095633;28;20089;-59
2022/12/10 17:01:36;;;;;;;77.63;32.33;;;0.80;88.20;;;;;;5094746;28;20036;-56
2022/12/10 17:04:03;;;;;;;85.72;35.53;;;0.80;88.20;;;;;;5095341;28;20092;-59
2022/12/10 17:06:28;;;;;;;84.95;37.63;;;0.90;88.20;;;;;;5094973;28;20025;-55
2022/12/10 17:08:54;;;;;;;81.22;32.70;;;1.00;87.90;;;;;;5093767;28;20028;-56
2022/12/10 17:11:45;;;;;;;81.38;34.50;;;0.90;87.60;;;;;;5094872;28;20024;-58
2022/12/10 17:14:24;;;;;;;84.68;33.28;;;1.00;87.40;;;;;;5094832;28;20020;-58
2022/12/10 17:16:51;;;;;;;87.15;33.88;;;1.10;87.90;;;;;;5095133;28;20020;-57
2022/12/10 17:19:20;;;;;;;80.60;35.05;;;1.20;87.60;;;;;;5095321;28;20027;-56
2022/12/10 17:21:47;;;;;;;84.60;37.80;;;1.10;87.50;;;;;;5093407;28;20031;-56
2022/12/10 17:24:12;;;;;;;73.75;32.65;;;1.00;87.60;;;;;;5094372;28;20032;-58
2022/12/10 17:26:42;;;;;;;84.20;34.17;;;1.20;87.60;;;;;;5092830;28;20111;-56
2022/12/10 17:29:13;;;;;;;82.77;34.33;;;1.30;87.30;;;;;;5094379;28;20050;-56
2022/12/10 17:31:39;;;;;;;76.45;29.17;;;1.20;86.90;;;;;;5094465;28;20095;-57
2022/12/10 17:34:06;;;;;;;84.53;33.67;;;1.10;87.00;;;;;;5094812;28;20028;-56
2022/12/10 17:36:32;;;;;;;67.75;31.25;;;1.10;87.20;;;;;;5093086;28;20357;-57
2022/12/10 17:38:58;;;;;;;78.78;34.38;;;1.30;87.20;;;;;;5094391;28;20433;-57
2022/12/10 17:41:24;;;;;;;78.13;34.65;;;1.30;87.20;;;;;;5094257;28;20020;-57
2022/12/10 17:43:49;;;;;;;78.13;32.42;;;1.30;87.10;;;;;;5094249;28;20016;-57
2022/12/10 17:46:21;;;;;;;76.65;34.80;;;1.30;87.00;;;;;;5094196;28;20038;-56
2022/12/10 17:48:47;;;;;;;69.95;31.15;;;1.20;87.00;;;;;;5093022;28;20164;-56
2022/12/10 17:51:13;;;;;;;80.40;32.33;;;1.20;87.30;;;;;;5093968;28;20028;-59
2022/12/10 17:53:39;;;;;;;77.13;32.40;;;1.20;86.80;;;;;;5092583;28;20028;-58
2022/12/10 17:56:14;;;;;;;64.35;30.10;;;1.10;87.30;;;;;;5092997;28;20456;-57
2022/12/10 17:58:40;;;;;;;77.55;32.30;;;1.30;87.30;;;;;;5094381;28;20498;-63
2022/12/10 18:01:08;;;;;;;68.95;30.05;;;1.20;86.90;;;;;;5092898;28;20048;-64
2022/12/10 18:03:35;;;;;;;71.25;31.38;;;1.40;87.20;;;;;;5094269;28;20116;-63
2022/12/10 18:06:01;;;;;;;69.05;30.55;;;1.30;87.10;;;;;;5094214;28;20016;-63
2022/12/10 18:08:26;;;;;;;78.43;29.30;;;1.10;87.10;;;;;;5094253;28;20486;-62
2022/12/10 18:10:52;;;;;;;69.63;28.20;;;0.90;87.10;;;;;;5094022;28;20020;-64
2022/12/10 18:13:19;;;;;;;63.15;28.48;;;0.80;87.80;;;;;;5093876;28;20031;-64
2022/12/10 18:15:45;;;;;;;65.90;27.23;;;0.90;87.90;;;;;;5093992;28;20028;-63
2022/12/10 18:18:10;;;;;;;60.20;28.55;;;0.90;87.60;;;;;;5093781;28;20074;-63
2022/12/10 18:20:39;;;;;;;69.95;28.83;;;1.00;87.50;;;;;;5092468;28;20420;-64
2022/12/10 18:23:07;;;;;;;70.28;29.35;;;0.90;87.50;;;;;;5094270;28;20077;-64
2022/12/10 18:25:35;;;;;;;67.22;29.42;;;1.00;87.30;;;;;;5093864;28;20576;-64
2022/12/10 18:28:26;;;;;;;61.53;27.67;;;1.10;87.50;;;;;;5093715;28;20099;-64
2022/12/10 18:30:54;;;;;;;67.53;27.75;;;1.10;87.20;;;;;;5092094;28;20024;-63
2022/12/10 18:33:21;;;;;;;62.53;28.00;;;1.00;86.60;;;;;;5092417;28;20028;-63
2022/12/10 18:35:46;;;;;;;60.40;29.15;;;1.00;87.10;;;;;;5093377;28;20378;-65
2022/12/10 18:38:14;;;;;;;68.88;28.38;;;1.00;87.10;;;;;;5093745;28;20024;-63
2022/12/10 18:40:39;;;;;;;58.92;25.48;;;1.10;87.40;;;;;;5093590;28;20104;-62
2022/12/10 18:43:05;;;;;;;60.55;26.02;;;1.20;87.00;;;;;;5093454;28;20111;-63
2022/12/10 18:45:31;;;;;;;62.17;26.42;;;1.00;87.30;;;;;;5092085;28;20065;-62
2022/12/10 18:47:56;;;;;;;51.25;24.95;;;0.90;87.20;;;;;;5093450;28;20515;-63
2022/12/10 18:50:25;;;;;;;53.10;24.65;;;0.90;87.70;;;;;;5093179;28;20024;-63
2022/12/10 18:52:52;;;;;;;51.08;22.77;;;1.10;87.50;;;;;;5093420;28;20020;-64
2022/12/10 18:55:19;;;;;;;61.33;25.05;;;1.10;86.80;;;;;;5092086;28;20028;-63
2022/12/10 18:57:44;;;;;;;55.38;24.23;;;1.10;86.50;;;;;;5093407;28;20028;-63
2022/12/10 19:00:16;;;;;;;64.35;26.65;;;1.10;87.10;;;;;;5093568;28;20024;-63
2022/12/10 19:02:42;;;;;;;63.42;25.88;;;0.90;87.40;;;;;;5091445;28;20040;-63
2022/12/10 19:05:08;;;;;;;70.50;27.13;;;0.90;87.70;;;;;;5091272;28;20024;-65
2022/12/10 19:07:34;;;;;;;63.63;29.25;;;1.00;87.70;;;;;;5092705;28;20046;-63
2022/12/10 19:10:00;;;;;;;60.75;26.15;;;1.10;87.40;;;;;;5093114;28;20387;-64
2022/12/10 19:12:25;;;;;;;67.25;26.50;;;1.20;87.30;;;;;;5093081;28;20038;-63
2022/12/10 19:14:51;;;;;;;62.97;28.55;;;1.20;87.00;;;;;;5093173;28;20028;-63
2022/12/10 19:17:17;;;;;;;67.13;28.52;;;1.10;87.10;;;;;;5092941;28;20059;-63
2022/12/10 19:19:42;;;;;;;61.40;27.83;;;1.00;87.50;;;;;;5091786;28;20024;-64
2022/12/10 19:22:08;;;;;;;64.47;27.33;;;1.20;87.70;;;;;;5092877;28;20028;-64
2022/12/10 19:24:34;;;;;;;74.22;30.80;;;1.20;87.20;;;;;;5091703;28;20052;-64
2022/12/10 19:26:59;;;;;;;53.40;24.80;;;1.30;87.20;;;;;;5092895;28;20051;-65
2022/12/10 19:29:25;;;;;;;67.22;25.98;;;1.10;86.80;;;;;;5092922;28;20027;-63
2022/12/10 19:31:51;;;;;;;62.08;28.05;;;0.90;87.50;;;;;;5092881;28;20111;-64
2022/12/10 19:34:18;;;;;;;73.63;28.02;;;1.00;87.50;;;;;;5091902;28;20131;-64
2022/12/10 19:36:45;;;;;;;68.28;27.27;;;1.10;87.60;;;;;;5092909;28;20464;-64
2022/12/10 19:39:35;;;;;;;70.38;29.30;;;1.00;87.60;;;;;;5093300;28;20105;-64
2022/12/10 19:42:01;;;;;;;77.57;28.65;;;1.20;87.50;;;;;;5091635;28;20028;-62
2022/12/10 19:44:27;;;;;;;63.10;25.02;;;1.30;86.90;;;;;;5092864;28;20035;-63
2022/12/10 19:46:52;;;;;;;66.82;22.48;;;1.20;87.00;;;;;;5092927;28;20081;-64
2022/12/10 19:49:19;;;;;;;63.33;26.08;;;1.10;87.20;;;;;;5095689;28;20483;-66
2022/12/10 19:51:47;;;;;;;69.35;28.20;;;1.10;87.20;;;;;;5095608;28;20028;-64
2022/12/10 19:54:13;;;;;;;60.35;27.17;;;1.10;87.40;;;;;;5096318;28;20020;-62
2022/12/10 19:56:39;;;;;;;68.00;25.95;;;0.90;87.50;;;;;;5096749;28;20054;-63
2022/12/10 19:59:15;;;;;;;67.75;26.90;;;1.00;87.60;;;;;;5096811;28;20028;-63
2022/12/10 20:01:41;;;;;;;68.80;26.02;;;1.20;87.80;;;;;;5095699;28;20119;-64
2022/12/10 20:04:06;;;;;;;67.43;24.98;;;1.10;87.00;;;;;;5095655;28;20051;-64
2022/12/10 20:06:38;;;;;;;55.90;24.05;;;1.10;87.30;;;;;;5096728;28;20016;-63
2022/12/10 20:09:26;;;;;;;59.55;24.63;;;1.20;87.60;;;;;;5095859;28;20020;-63
2022/12/10 20:11:52;;;;;;;67.22;26.42;;;1.30;87.30;;;;;;5096312;28;20040;-64
2022/12/10 20:14:18;;;;;;;65.35;25.92;;;1.10;87.00;;;;;;5096334;28;20501;-65
2022/12/10 20:16:45;;;;;;;66.68;25.77;;;1.20;87.40;;;;;;5095043;28;20067;-63
2022/12/10 20:19:16;;;;;;;64.40;28.35;;;1.20;87.50;;;;;;5095252;28;20024;-63
2022/12/10 20:21:42;;;;;;;58.95;24.20;;;1.30;87.40;;;;;;5096370;28;20032;-63
2022/12/10 20:24:08;;;;;;;69.68;27.38;;;1.10;87.10;;;;;;5096209;28;20146;-64
2022/12/10 20:26:36;;;;;;;65.35;24.92;;;0.90;88.10;;;;;;5095708;28;20059;-63
2022/12/10 20:29:05;;;;;;;60.60;25.30;;;0.90;88.40;;;;;;5095245;28;20024;-63
2022/12/10 20:31:31;;;;;;;71.85;28.25;;;0.80;88.80;;;;;;5096319;28;20076;-63
2022/12/10 20:33:57;;;;;;;70.50;28.52;;;1.00;88.90;;;;;;5096316;28;20024;-63
2022/12/10 20:36:26;;;;;;;68.47;26.60;;;1.00;88.50;;;;;;5094614;28;20020;-63
2022/12/10 20:38:53;;;;;;;77.07;29.63;;;0.80;89.00;;;;;;5095854;28;20477;-64
2022/12/10 20:41:19;;;;;;;67.97;27.65;;;0.80;89.30;;;;;;5095978;28;20447;-64
2022/12/10 20:43:45;;;;;;;76.07;29.35;;;0.80;89.40;;;;;;5095156;28;20073;-63
2022/12/10 20:46:14;;;;;;;79.63;31.08;;;0.80;89.40;;;;;;5095741;28;20479;-64
2022/12/10 20:48:40;;;;;;;64.10;26.10;;;0.80;89.20;;;;;;5094318;28;20026;-63
2022/12/10 20:51:05;;;;;;;70.65;25.17;;;0.90;89.20;;;;;;5094310;28;20387;-63
2022/12/10 20:53:31;;;;;;;56.25;20.65;;;0.90;88.90;;;;;;5096136;28;20078;-65
2022/12/10 20:55:57;;;;;;;71.05;28.02;;;0.80;89.10;;;;;;5094409;28;20111;-63
2022/12/10 20:58:23;;;;;;;66.55;29.63;;;0.90;89.50;;;;;;5095688;28;20030;-64
